Latest Weather Observations for Avalon

IDV60801

Issued at 11:02 pm EST Saturday 30 April 2016 (issued every 30 minutes, with the page automatically refreshed every 10 minutes)

About weather observations | Map of weather stations | Latest weather observations for VIC | Other Formats
Station Details ID: 087113 Name: AVALON AIRPORT Lat: -38.03 Lon: 144.48 Height: 10.6 m
Data from the previous 72 hours. | See also: Recent months at Avalon
Date/Time
EST
Temp
°C
App
Temp
°C
Dew
Point
Rel
Hum
%
Delta-T
°C
Wind Press
QNH
hPa
Press
MSL
hPa
Rain
since 9 am
mm
Dir
 
Spd
km/h
Gust
km/h
Spd
kts
Gust
kts
30/11:00pm 19.8 17.0 15.4 76 2.6 NNE 24 30 13 16 1006.5 1006.5 0.0
30/10:30pm 18.2 16.6 14.9 81 1.9 NE 17 24 9 13 1007.4 1007.4 0.0
30/10:00pm 18.8 16.1 14.7 77 2.4 NNE 22 28 12 15 1008.0 1008.0 0.0
30/09:30pm 19.1 16.2 15.0 77 2.4 NNE 24 30 13 16 1008.1 1008.1 0.0
30/09:00pm 18.5 16.4 15.2 81 1.9 NNE 20 28 11 15 1008.4 1008.4 0.0
30/08:30pm 17.1 15.8 13.8 81 1.9 NE 13 17 7 9 1008.9 1008.9 0.0
30/08:00pm 18.0 16.4 13.9 77 2.3 NNE 15 20 8 11 1009.1 1009.1 0.0
30/07:30pm 19.4 17.2 14.4 73 2.9 N 19 26 10 14 1009.2 1009.2 0.0
30/07:00pm 19.7 17.3 14.3 71 3.1 NNE 20 30 11 16 1009.4 1009.4 0.0
30/06:30pm 20.4 17.6 14.3 68 3.5 NNE 22 30 12 16 1009.3 1009.3 0.0
30/06:00pm 20.3 18.0 14.0 67 3.6 N 19 26 10 14 1009.3 1009.3 0.0
30/05:30pm 21.4 18.6 13.1 59 4.7 NNW 20 26 11 14 1009.4 1009.4 0.0
30/05:00pm 22.7 19.0 12.6 53 5.8 N 24 35 13 19 1009.5 1009.5 0.0
30/04:30pm 23.5 19.4 12.8 51 6.1 N 26 32 14 17 1009.6 1009.6 0.0
30/04:00pm 23.9 20.3 13.2 51 6.2 NNW 24 30 13 16 1009.6 1009.6 0.0
30/03:30pm 24.4 20.5 13.3 50 6.5 NNW 26 37 14 20 1009.6 1009.6 0.0
30/03:00pm 24.3 19.0 12.6 48 6.7 NNW 32 43 17 23 1009.7 1009.7 0.0
30/02:30pm 24.2 18.2 13.4 51 6.3 NNW 37 46 20 25 1009.9 1009.9 0.0
30/02:06pm 24.2 19.3 13.7 52 6.1 N 32 50 17 27 1010.2 1010.2 0.0
30/02:00pm 24.5 19.1 14.0 52 6.2 N 35 50 19 27 1010.3 1010.3 0.0
30/01:30pm 24.7 19.8 14.2 52 6.2 NNW 33 43 18 23 1010.6 1010.6 0.0
30/01:00pm 24.8 19.3 14.6 53 6.1 NNW 37 46 20 25 1010.9 1010.9 0.0
30/12:34pm 23.7 19.3 14.1 55 5.6 N 30 48 16 26 1011.3 1011.3 0.0
30/12:30pm 23.4 19.1 14.4 57 5.3 N 30 39 16 21 1011.4 1011.4 0.0
30/12:00pm 22.8 18.1 14.9 61 4.7 N 33 41 18 22 1011.9 1011.9 0.0
30/11:30am 22.8 18.3 14.9 61 4.7 N 32 43 17 23 1012.3 1012.3 0.0
30/11:00am 22.2 17.3 15.3 65 4.1 N 35 48 19 26 1012.7 1012.7 0.0
30/10:36am 21.8 16.6 14.4 63 4.3 N 35 54 19 29 1012.6 1012.6 0.0
30/10:30am 21.9 16.2 15.3 66 3.9 N 39 50 21 27 1012.6 1012.6 0.0
30/10:00am 20.9 16.9 15.2 70 3.4 N 30 43 16 23 1013.0 1013.0 0.0
30/09:30am 19.9 16.3 15.3 75 2.7 N 28 41 15 22 1013.5 1013.5 0.0
30/09:00am 18.3 15.5 15.4 83 1.7 N 24 32 13 17 1013.8 1013.8 7.2
30/08:30am 17.2 14.1 14.5 84 1.6 N 24 32 13 17 1013.6 1013.6 7.2
30/08:00am 15.9 13.4 13.6 86 1.3 N 19 26 10 14 1013.5 1013.5 7.2
30/07:30am 15.4 12.9 13.6 89 1.0 N 19 26 10 14 1013.3 1013.3 7.2
30/07:00am 14.9 12.0 12.9 88 1.1 N 20 24 11 13 1013.1 1013.1 7.2
30/06:30am 15.5 12.6 13.0 85 1.4 N 20 26 11 14 1012.8 1012.8 7.2
30/06:00am 14.9 12.1 12.6 86 1.3 N 19 22 10 12 1012.9 1012.9 7.2
30/05:30am 15.3 12.6 13.0 86 1.3 N 19 24 10 13 1012.8 1012.8 7.2
30/05:00am 14.8 13.4 13.3 91 0.8 NNE 13 17 7 9 1012.8 1012.8 7.2
30/04:30am 14.2 12.0 12.1 87 1.1 NNE 15 20 8 11 1012.6 1012.6 7.2
30/04:00am 16.2 14.0 13.3 83 1.6 NNE 17 20 9 11 1012.5 1012.5 7.2
30/03:30am 16.3 14.2 13.6 84 1.5 N 17 20 9 11 1012.5 1012.5 7.2
30/03:00am 13.7 12.1 11.4 86 1.2 NE 11 15 6 8 1012.9 1012.9 7.2
30/02:30am 15.1 13.5 12.8 86 1.3 N 13 17 7 9 1013.2 1013.2 7.2
30/02:00am 14.7 13.8 12.7 88 1.1 N 9 15 5 8 1013.4 1013.4 7.2
30/01:30am 13.9 13.7 13.6 98 0.2 NE 7 11 4 6 1013.3 1013.3 7.2
30/01:00am 12.9 12.1 11.8 93 0.6 ENE 7 9 4 5 1013.4 1013.4 7.2
30/12:30am 13.8 13.4 12.4 91 0.8 W 6 9 3 5 1013.5 1013.5 7.2
30/12:00am 14.8 13.6 12.8 88 1.1 N 11 15 6 8 1013.4 1013.4 7.2
 
Date/Time
EST
Temp
°C
App
Temp
°C
Dew
Point
Rel
Hum
%
Delta-T
°C
Wind Press
QNH
hPa
Press
MSL
hPa
Rain
since 9 am
mm
Dir
 
Spd
km/h
Gust
km/h
Spd
kts
Gust
kts
29/11:30pm 15.5 13.9 12.8 84 1.5 N 13 15 7 8 1013.4 1013.4 7.2
29/11:00pm 16.8 14.7 13.5 81 1.9 N 17 20 9 11 1013.6 1013.6 7.2
29/10:30pm 17.2 15.7 14.1 82 1.8 NNE 15 19 8 10 1013.8 1013.8 7.2
29/10:00pm 15.9 14.0 14.3 90 0.9 NE 17 20 9 11 1013.8 1013.8 7.2
29/09:30pm 17.0 15.3 14.8 87 1.3 NNE 17 20 9 11 1013.9 1013.9 7.2
29/09:00pm 15.7 14.6 14.2 91 0.9 NE 13 17 7 9 1013.8 1013.8 7.2
29/08:30pm 15.2 14.7 13.7 91 0.8 ENE 9 13 5 7 1013.4 1013.4 7.2
29/08:00pm 15.3 14.0 13.7 90 0.9 NE 13 17 7 9 1013.3 1013.3 7.2
29/07:30pm 16.5 15.1 13.4 82 1.7 N 13 17 7 9 1013.1 1013.1 7.2
29/07:00pm 16.3 14.6 13.6 84 1.5 NE 15 17 8 9 1013.0 1013.0 7.2
29/06:30pm 16.9 15.7 14.0 83 1.6 NNE 13 15 7 8 1012.8 1012.8 7.2
29/06:00pm 17.6 16.8 15.0 85 1.5 NNE 13 17 7 9 1012.5 1012.5 7.2
29/05:30pm 17.5 16.4 15.3 87 1.3 NNE 15 20 8 11 1012.3 1012.3 7.2
29/05:00pm 17.7 16.2 15.3 86 1.4 NNE 17 22 9 12 1012.2 1012.2 7.2
29/04:30pm 18.1 15.9 15.9 87 1.3 NNE 22 28 12 15 1012.3 1012.3 7.2
29/04:00pm 17.5 16.2 16.9 96 0.4 NNE 19 24 10 13 1012.2 1012.2 7.2
29/03:30pm 16.9 15.4 16.7 99 0.1 NE 20 28 11 15 1012.5 1012.5 7.2
29/03:00pm 16.4 14.7 16.2 99 0.1 NE 20 24 11 13 1012.8 1012.8 7.2
29/02:30pm 16.3 14.5 16.1 99 0.1 NE 20 28 11 15 1012.9 1012.9 6.8
29/02:00pm 16.4 14.7 16.2 99 0.1 NE 20 28 11 15 1013.1 1013.1 5.8
29/01:30pm 16.4 15.6 16.1 98 0.2 NE 15 20 8 11 1012.9 1012.9 5.0
29/01:00pm 16.4 15.9 15.8 96 0.4 NE 13 17 7 9 1013.2 1013.2 4.0
29/12:30pm 16.8 16.4 15.2 90 0.9 ENE 11 15 6 8 1013.9 1013.9 2.4
29/12:00pm 17.1 17.3 14.6 85 1.4 NNW 7 11 4 6 1014.2 1014.2 1.2
29/11:30am 17.6 17.3 14.5 82 1.8 NNW 9 11 5 6 1014.3 1014.3 0.6
29/11:00am 18.8 16.1 13.6 72 3.0 NNW 20 30 11 16 1014.5 1014.5 0.2
29/10:30am 18.4 17.6 14.1 76 2.5 N 11 17 6 9 1014.4 1014.4 0.0
29/10:00am 18.6 17.3 13.7 73 2.8 NNE 13 19 7 10 1014.1 1014.1 0.0
29/09:30am 18.9 16.1 13.3 70 3.2 NNE 20 28 11 15 1014.1 1014.1 0.0
29/09:00am 18.5 16.7 13.4 72 2.9 N 15 19 8 10 1014.2 1014.2 3.2
29/08:30am 18.4 15.7 13.5 73 2.8 N 20 30 11 16 1014.1 1014.1 3.2
29/08:00am 17.6 16.6 13.5 77 2.3 NNE 11 17 6 9 1014.2 1014.2 3.2
29/07:30am 15.6 15.5 13.3 86 1.3 NW 6 9 3 5 1014.4 1014.4 3.0
29/07:00am 15.6 14.6 12.4 81 1.8 SW 9 13 5 7 1013.9 1013.9 2.6
29/06:30am 17.6 17.0 12.3 71 2.9 NNW 7 13 4 7 1013.3 1013.3 2.6
29/06:00am 15.5 14.8 11.9 79 2.0 SE 7 13 4 7 1013.7 1013.7 2.6
29/05:30am 16.0 15.7 11.6 75 2.4 WNW 4 15 2 8 1014.0 1014.0 2.6
29/05:00am 15.7 14.1 11.7 77 2.2 NNE 11 13 6 7 1013.8 1013.8 2.6
29/04:30am 15.7 14.6 12.1 79 2.0 NNE 9 11 5 6 1013.8 1013.8 2.6
29/04:00am 15.4 13.8 12.7 84 1.5 NE 13 15 7 8 1013.7 1013.7 2.6
29/03:30am 15.3 13.8 13.2 87 1.2 NE 13 17 7 9 1013.8 1013.8 2.6
29/03:00am 15.3 15.1 13.0 86 1.3 NE 6 9 3 5 1014.2 1014.2 2.6
29/02:30am 15.9 15.2 13.2 84 1.5 N 9 13 5 7 1014.4 1014.4 2.6
29/02:00am 15.9 15.0 13.7 87 1.2 NE 11 13 6 7 1014.4 1014.4 2.6
29/01:30am 16.1 15.0 14.3 89 1.0 N 13 15 7 8 1014.9 1014.9 2.6
29/01:00am 16.1 15.9 14.6 91 0.9 N 9 11 5 6 1015.1 1015.1 2.6
29/12:30am 16.3 15.7 14.7 90 0.9 N 11 15 6 8 1015.1 1015.1 2.6
29/12:00am 16.1 15.3 15.0 93 0.6 N 13 13 7 7 1015.6 1015.6 2.6
 
Date/Time
EST
Temp
°C
App
Temp
°C
Dew
Point
Rel
Hum
%
Delta-T
°C
Wind Press
QNH
hPa
Press
MSL
hPa
Rain
since 9 am
mm
Dir
 
Spd
km/h
Gust
km/h
Spd
kts
Gust
kts
28/11:30pm 16.7 16.0 15.4 92 0.8 NNE 13 17 7 9 1016.0 1016.0 2.6
28/11:00pm 16.9 15.7 16.1 95 0.5 NNE 17 20 9 11 1016.4 1016.4 2.6
28/10:30pm 16.3 15.9 16.1 99 0.1 NNE 13 15 7 8 1017.0 1017.0 2.6
28/10:00pm 16.0 16.2 15.8 99 0.1 NW 9 11 5 6 1017.2 1017.2 2.6
28/09:30pm 16.2 17.4 16.0 99 0.1 NNE 4 7 2 4 1017.1 1017.1 2.6
28/09:00pm 16.5 18.5 16.0 97 0.3 CALM 0 0 0 0 1017.0 1017.0 2.6
28/08:30pm 16.5 18.5 15.9 96 0.4 CALM 0 0 0 0 1017.4 1017.4 2.4
28/08:00pm 16.6 16.8 15.8 95 0.5 SSW 9 11 5 6 1017.1 1017.1 2.4
28/07:30pm 16.9 16.7 15.6 92 0.8 SSW 11 15 6 8 1017.1 1017.1 2.4
28/07:00pm 17.3 18.4 15.6 90 1.0 SW 4 9 2 5 1017.0 1017.0 2.4
28/06:30pm 17.4 17.1 15.4 88 1.2 SSW 11 13 6 7 1016.6 1016.6 2.4
28/06:00pm 17.5 17.5 15.3 87 1.3 SW 9 13 5 7 1016.4 1016.4 2.4
28/05:30pm 18.0 18.4 15.4 85 1.5 WSW 7 9 4 5 1016.4 1016.4 2.4
28/05:00pm 18.2 19.2 15.3 83 1.7 S 4 9 2 5 1016.3 1016.3 2.4
28/04:30pm 18.6 18.0 14.7 78 2.3 S 11 13 6 7 1016.4 1016.4 2.4
28/04:00pm 18.9 18.7 15.6 81 1.9 SSE 11 20 6 11 1016.4 1016.4 2.4
28/03:30pm 19.5 18.4 15.2 76 2.5 ENE 15 19 8 10 1016.1 1016.1 2.4
28/03:00pm 19.5 19.8 16.0 80 2.1 ENE 9 13 5 7 1016.5 1016.5 2.4
28/02:30pm 18.9 19.8 16.1 84 1.7 N 6 11 3 6 1016.7 1016.7 2.4
28/02:00pm 18.6 19.7 15.5 82 1.8 N 4 11 2 6 1016.9 1016.9 2.4
28/01:55pm 18.4 19.8 15.3 82 1.8 N 2 9 1 5 1016.8 1016.8 2.2
28/01:30pm 18.5 18.3 14.6 78 2.3 N 9 11 5 6 1017.4 1017.4 0.8
28/01:29pm 18.7 18.5 14.8 78 2.3 N 9 13 5 7 1017.4 1017.4 0.8
28/01:00pm 19.6 17.3 13.1 66 3.7 NNE 17 20 9 11 1017.3 1017.3 0.0
28/12:30pm 21.2 18.8 11.5 54 5.4 NNE 15 19 8 10 1017.2 1017.2 0.0
28/12:00pm 21.7 20.1 10.2 48 6.2 NNE 9 13 5 7 1017.3 1017.3 0.0
28/11:30am 20.8 18.5 10.6 52 5.6 NE 13 15 7 8 1017.1 1017.1 0.0
28/11:00am 20.9 19.4 10.7 52 5.6 NE 9 13 5 7 1017.5 1017.5 0.0
28/10:30am 21.1 19.9 10.3 50 5.9 N 7 13 4 7 1017.4 1017.4 0.0
28/10:00am 19.9 19.5 13.1 65 3.9 NNW 7 9 4 5 1017.8 1017.8 0.0
28/09:30am 19.9 18.1 10.9 56 4.9 NW 11 17 6 9 1017.2 1017.2 0.0
28/09:00am 21.6 17.5 8.5 43 6.9 NW 20 37 11 20 1018.0 1018.0 0.0
28/08:30am 21.9 17.2 7.7 40 7.4 NNW 22 30 12 16 1017.5 1017.5 -
28/08:00am 22.3 17.5 7.3 38 7.7 NW 22 32 12 17 1016.7 1016.7 -
28/07:30am 21.3 15.9 7.9 42 7.0 N 26 33 14 18 1016.0 1016.0 -
28/07:00am 21.0 15.6 8.0 43 6.8 N 26 35 14 19 1015.2 1015.2 -
28/06:30am 21.1 15.6 7.7 42 6.9 N 26 35 14 19 1015.0 1015.0 -
28/06:00am 21.4 15.5 7.6 41 7.1 N 28 35 15 19 1014.9 1014.9 -
28/05:30am 21.7 16.2 7.5 40 7.3 N 26 35 14 19 1015.0 1015.0 -
28/05:00am 21.8 16.2 7.2 39 7.5 N 26 35 14 19 1014.9 1014.9 -
28/04:30am 21.8 15.8 6.9 38 7.6 N 28 35 15 19 1014.6 1014.6 -
28/04:00am 22.0 15.9 6.7 37 7.8 N 28 39 15 21 1014.6 1014.6 -
28/03:30am 22.1 16.8 6.7 37 7.9 N 24 35 13 19 1014.4 1014.4 -
28/03:00am 22.4 16.7 6.6 36 8.1 N 26 33 14 18 1014.8 1014.8 0.0
28/02:30am 20.1 17.0 7.1 43 6.6 NNW 13 19 7 10 1015.0 1015.0 -
28/02:00am 20.4 16.5 7.1 42 6.8 N 17 22 9 12 1015.2 1015.2 -
28/01:30am 20.8 16.9 7.1 41 7.0 N 17 24 9 13 1015.2 1015.2 -
28/01:00am 21.1 17.2 7.0 40 7.2 N 17 22 9 12 1015.0 1015.0 -
28/12:30am 20.7 17.5 7.0 41 7.0 N 13 19 7 10 1014.8 1014.8 -
28/12:00am 22.0 17.1 6.7 37 7.8 N 22 30 12 16 1014.6 1014.6 -
 
Date/Time
EST
Temp
°C
App
Temp
°C
Dew
Point
Rel
Hum
%
Delta-T
°C
Wind Press
QNH
hPa
Press
MSL
hPa
Rain
since 9 am
mm
Dir
 
Spd
km/h
Gust
km/h
Spd
kts
Gust
kts
27/11:30pm 22.0 17.4 6.7 37 7.8 N 20 28 11 15 1014.9 1014.9 -

Other Formats:

Comma delimited format used in spreadsheet applications
http://www.bom.gov.au/fwo/IDV60801/IDV60801.94854.axf

JavaScript Object Notation format (JSON) in row-major order
http://www.bom.gov.au/fwo/IDV60801/IDV60801.94854.json